sensor_id;sensor_type;location;lat;lon;timestamp;pressure;altitude;pressure_sealevel;temperature;humidity
55934;BME280;41839;41.386;2.082;2023-03-18T00:00:39;99566.63;;;17.35;62.88
55934;BME280;41839;41.386;2.082;2023-03-18T00:03:05;99583.22;;;17.45;62.57
55934;BME280;41839;41.386;2.082;2023-03-18T00:05:32;99571.91;;;17.43;62.62
55934;BME280;41839;41.386;2.082;2023-03-18T00:08:02;99572.72;;;17.37;62.89
55934;BME280;41839;41.386;2.082;2023-03-18T00:10:29;99574.50;;;17.41;62.71
55934;BME280;41839;41.386;2.082;2023-03-18T00:12:54;99575.38;;;17.42;62.58
55934;BME280;41839;41.386;2.082;2023-03-18T00:15:20;99568.50;;;17.44;62.25
55934;BME280;41839;41.386;2.082;2023-03-18T00:17:46;99559.72;;;17.37;62.45
55934;BME280;41839;41.386;2.082;2023-03-18T00:20:14;99551.03;;;17.37;62.78
55934;BME280;41839;41.386;2.082;2023-03-18T00:22:41;99537.03;;;17.25;62.37
55934;BME280;41839;41.386;2.082;2023-03-18T00:25:09;99537.91;;;17.27;62.40
55934;BME280;41839;41.386;2.082;2023-03-18T00:27:37;99557.94;;;17.33;62.66
55934;BME280;41839;41.386;2.082;2023-03-18T00:30:03;99566.69;;;17.40;62.67
55934;BME280;41839;41.386;2.082;2023-03-18T00:32:29;99571.84;;;17.35;63.02
55934;BME280;41839;41.386;2.082;2023-03-18T00:34:55;99571.84;;;17.35;63.44
55934;BME280;41839;41.386;2.082;2023-03-18T00:37:22;99544.81;;;17.24;63.10
55934;BME280;41839;41.386;2.082;2023-03-18T00:40:05;99563.88;;;17.24;63.33
55934;BME280;41839;41.386;2.082;2023-03-18T00:42:36;99560.28;;;17.15;63.44
55934;BME280;41839;41.386;2.082;2023-03-18T00:45:12;99571.63;;;17.21;63.61
55934;BME280;41839;41.386;2.082;2023-03-18T00:47:38;99568.97;;;17.17;62.95
55934;BME280;41839;41.386;2.082;2023-03-18T00:50:05;99552.34;;;17.05;62.86
55934;BME280;41839;41.386;2.082;2023-03-18T00:52:33;99543.78;;;17.11;62.78
55934;BME280;41839;41.386;2.082;2023-03-18T00:54:59;99554.34;;;17.23;62.70
55934;BME280;41839;41.386;2.082;2023-03-18T00:57:25;99533.25;;;17.00;62.94
55934;BME280;41839;41.386;2.082;2023-03-18T00:59:51;99568.13;;;17.16;63.22
55934;BME280;41839;41.386;2.082;2023-03-18T01:02:18;99559.56;;;17.25;63.31
55934;BME280;41839;41.386;2.082;2023-03-18T01:04:43;99563.09;;;17.30;63.46
55934;BME280;41839;41.386;2.082;2023-03-18T01:07:09;99565.66;;;17.25;63.28
55934;BME280;41839;41.386;2.082;2023-03-18T01:09:37;99559.56;;;17.25;63.38
55934;BME280;41839;41.386;2.082;2023-03-18T01:12:06;99555.25;;;17.25;63.15
55934;BME280;41839;41.386;2.082;2023-03-18T01:14:32;99563.13;;;17.32;62.89
55934;BME280;41839;41.386;2.082;2023-03-18T01:16:57;99557.03;;;17.29;62.48
55934;BME280;41839;41.386;2.082;2023-03-18T01:19:23;99558.78;;;17.34;62.28
55934;BME280;41839;41.386;2.082;2023-03-18T01:21:50;99556.19;;;17.34;62.45
55934;BME280;41839;41.386;2.082;2023-03-18T01:24:16;99551.94;;;17.39;62.63
55934;BME280;41839;41.386;2.082;2023-03-18T01:26:41;99553.72;;;17.41;62.31
55934;BME280;41839;41.386;2.082;2023-03-18T01:29:06;99533.66;;;17.33;62.44
55934;BME280;41839;41.386;2.082;2023-03-18T01:31:32;99508.34;;;17.18;62.71
55934;BME280;41839;41.386;2.082;2023-03-18T01:33:59;99553.78;;;17.47;62.40
55934;BME280;41839;41.386;2.082;2023-03-18T01:36:25;99537.25;;;17.42;62.50
55934;BME280;41839;41.386;2.082;2023-03-18T01:38:50;99525.91;;;17.36;62.86
55934;BME280;41839;41.386;2.082;2023-03-18T01:41:16;99534.66;;;17.42;62.94
55934;BME280;41839;41.386;2.082;2023-03-18T01:43:43;99531.09;;;17.37;62.98
55934;BME280;41839;41.386;2.082;2023-03-18T01:48:53;99526.72;;;17.33;62.93
55934;BME280;41839;41.386;2.082;2023-03-18T01:51:19;99520.72;;;17.37;62.82
55934;BME280;41839;41.386;2.082;2023-03-18T01:53:46;99518.91;;;17.30;62.65
55934;BME280;41839;41.386;2.082;2023-03-18T01:56:13;99520.66;;;17.33;62.88
55934;BME280;41839;41.386;2.082;2023-03-18T01:58:45;99508.50;;;17.28;63.01
55934;BME280;41839;41.386;2.082;2023-03-18T02:01:31;99511.06;;;17.27;62.94
55934;BME280;41839;41.386;2.082;2023-03-18T02:03:58;99503.34;;;17.32;62.58
55934;BME280;41839;41.386;2.082;2023-03-18T02:06:25;99448.31;;;16.98;62.54
55934;BME280;41839;41.386;2.082;2023-03-18T02:08:51;99494.47;;;17.16;62.53
55934;BME280;41839;41.386;2.082;2023-03-18T02:11:17;99485.84;;;17.21;62.56
55934;BME280;41839;41.386;2.082;2023-03-18T02:13:44;99486.72;;;17.20;62.38
55934;BME280;41839;41.386;2.082;2023-03-18T02:16:29;99415.22;;;16.83;62.29
55934;BME280;41839;41.386;2.082;2023-03-18T02:19:10;99471.16;;;17.23;61.94
55934;BME280;41839;41.386;2.082;2023-03-18T02:27:14;99474.59;;;17.19;61.56
55934;BME280;41839;41.386;2.082;2023-03-18T02:29:41;99478.09;;;17.23;61.07
55934;BME280;41839;41.386;2.082;2023-03-18T02:32:07;99450.94;;;16.99;61.07
55934;BME280;41839;41.386;2.082;2023-03-18T02:34:37;99472.81;;;17.18;60.60
55934;BME280;41839;41.386;2.082;2023-03-18T02:37:07;99465.88;;;17.16;60.47
55934;BME280;41839;41.386;2.082;2023-03-18T02:39:33;99470.19;;;17.15;60.78
55934;BME280;41839;41.386;2.082;2023-03-18T02:42:00;99471.13;;;17.19;60.46
55934;BME280;41839;41.386;2.082;2023-03-18T02:44:26;99474.47;;;17.10;60.22
55934;BME280;41839;41.386;2.082;2023-03-18T02:47:00;99445.53;;;16.84;60.09
55934;BME280;41839;41.386;2.082;2023-03-18T02:49:28;99476.19;;;17.10;59.78
55934;BME280;41839;41.386;2.082;2023-03-18T02:51:55;99480.53;;;17.11;59.51
55934;BME280;41839;41.386;2.082;2023-03-18T02:54:23;99479.66;;;17.12;59.22
55934;BME280;41839;41.386;2.082;2023-03-18T02:56:50;99454.47;;;17.04;58.91
55934;BME280;41839;41.386;2.082;2023-03-18T03:01:48;99471.09;;;17.16;58.82
55934;BME280;41839;41.386;2.082;2023-03-18T03:04:15;99473.72;;;17.19;58.76
55934;BME280;41839;41.386;2.082;2023-03-18T03:06:42;99472.00;;;17.21;58.94
55934;BME280;41839;41.386;2.082;2023-03-18T03:09:10;99450.97;;;17.01;59.18
55934;BME280;41839;41.386;2.082;2023-03-18T03:11:38;99469.25;;;17.09;59.43
55934;BME280;41839;41.386;2.082;2023-03-18T03:14:04;99454.50;;;17.09;59.35
55934;BME280;41839;41.386;2.082;2023-03-18T03:16:29;99455.38;;;17.08;59.15
55934;BME280;41839;41.386;2.082;2023-03-18T03:18:55;99459.66;;;17.04;59.45
55934;BME280;41839;41.386;2.082;2023-03-18T03:21:21;99468.31;;;17.05;59.50
55934;BME280;41839;41.386;2.082;2023-03-18T03:23:47;99472.66;;;17.04;59.20
55934;BME280;41839;41.386;2.082;2023-03-18T03:26:14;99483.06;;;17.06;59.34
55934;BME280;41839;41.386;2.082;2023-03-18T03:28:40;99476.00;;;16.96;59.59
55934;BME280;41839;41.386;2.082;2023-03-18T03:31:07;99488.13;;;16.97;59.60
55934;BME280;41839;41.386;2.082;2023-03-18T03:33:34;99473.34;;;16.91;59.76
55934;BME280;41839;41.386;2.082;2023-03-18T03:36:00;99488.94;;;16.91;60.17
55934;BME280;41839;41.386;2.082;2023-03-18T03:38:26;99493.22;;;16.89;60.23
55934;BME280;41839;41.386;2.082;2023-03-18T03:40:51;99477.66;;;16.91;60.00
55934;BME280;41839;41.386;2.082;2023-03-18T03:43:18;99483.72;;;16.90;60.20
55934;BME280;41839;41.386;2.082;2023-03-18T03:45:43;99482.84;;;16.89;59.91
55934;BME280;41839;41.386;2.082;2023-03-18T03:48:09;99483.72;;;16.88;59.79
55934;BME280;41839;41.386;2.082;2023-03-18T03:50:35;99475.00;;;16.88;60.03
55934;BME280;41839;41.386;2.082;2023-03-18T03:53:02;99475.06;;;16.89;60.14
55934;BME280;41839;41.386;2.082;2023-03-18T03:55:29;99464.63;;;16.86;60.39
55934;BME280;41839;41.386;2.082;2023-03-18T03:57:54;99459.38;;;16.83;60.59
55934;BME280;41839;41.386;2.082;2023-03-18T04:00:22;99460.28;;;16.87;60.43
55934;BME280;41839;41.386;2.082;2023-03-18T04:02:50;99459.44;;;16.88;60.28
55934;BME280;41839;41.386;2.082;2023-03-18T04:05:17;99454.22;;;16.88;60.06
55934;BME280;41839;41.386;2.082;2023-03-18T04:07:44;99457.59;;;16.80;60.24
55934;BME280;41839;41.386;2.082;2023-03-18T04:10:11;99457.66;;;16.83;60.12
55934;BME280;41839;41.386;2.082;2023-03-18T04:12:37;99461.97;;;16.85;60.10
55934;BME280;41839;41.386;2.082;2023-03-18T04:15:04;99457.69;;;16.85;60.30
55934;BME280;41839;41.386;2.082;2023-03-18T04:17:30;99454.19;;;16.85;60.25
55934;BME280;41839;41.386;2.082;2023-03-18T04:19:56;99461.97;;;16.85;60.23
55934;BME280;41839;41.386;2.082;2023-03-18T04:22:21;99462.63;;;16.70;60.20
55934;BME280;41839;41.386;2.082;2023-03-18T04:24:48;99457.41;;;16.68;60.95
55934;BME280;41839;41.386;2.082;2023-03-18T04:27:13;99466.97;;;16.71;60.39
55934;BME280;41839;41.386;2.082;2023-03-18T04:29:39;99448.81;;;16.72;60.13
55934;BME280;41839;41.386;2.082;2023-03-18T04:32:05;99458.31;;;16.72;60.39
55934;BME280;41839;41.386;2.082;2023-03-18T04:34:30;99458.09;;;16.56;60.84
55934;BME280;41839;41.386;2.082;2023-03-18T04:36:56;99453.75;;;16.54;60.96
55934;BME280;41839;41.386;2.082;2023-03-18T04:39:22;99436.16;;;16.36;60.99
55934;BME280;41839;41.386;2.082;2023-03-18T04:41:47;99447.44;;;16.38;60.98
55934;BME280;41839;41.386;2.082;2023-03-18T04:44:13;99448.97;;;16.25;61.38
55934;BME280;41839;41.386;2.082;2023-03-18T04:46:39;99430.66;;;16.14;61.39
55934;BME280;41839;41.386;2.082;2023-03-18T04:49:05;99455.06;;;16.27;61.30
55934;BME280;41839;41.386;2.082;2023-03-18T04:51:30;99464.63;;;16.31;61.15
55934;BME280;41839;41.386;2.082;2023-03-18T04:53:56;99464.63;;;16.31;61.25
55934;BME280;41839;41.386;2.082;2023-03-18T04:56:22;99468.09;;;16.32;61.19
55934;BME280;41839;41.386;2.082;2023-03-18T04:58:48;99455.06;;;16.29;60.66
55934;BME280;41839;41.386;2.082;2023-03-18T05:01:14;99471.75;;;16.43;60.76
55934;BME280;41839;41.386;2.082;2023-03-18T05:03:40;99475.19;;;16.42;60.77
55934;BME280;41839;41.386;2.082;2023-03-18T05:06:06;99473.44;;;16.40;60.72
55934;BME280;41839;41.386;2.082;2023-03-18T05:08:32;99467.47;;;16.45;60.48
55934;BME280;41839;41.386;2.082;2023-03-18T05:10:59;99441.22;;;16.28;60.56
55934;BME280;41839;41.386;2.082;2023-03-18T05:13:24;99473.47;;;16.44;60.53
55934;BME280;41839;41.386;2.082;2023-03-18T05:15:50;99473.53;;;16.46;60.21
55934;BME280;41839;41.386;2.082;2023-03-18T05:18:16;99482.22;;;16.49;60.16
55934;BME280;41839;41.386;2.082;2023-03-18T05:20:41;99473.44;;;16.41;60.35
55934;BME280;41839;41.386;2.082;2023-03-18T05:23:07;99473.44;;;16.41;60.22
55934;BME280;41839;41.386;2.082;2023-03-18T05:25:33;99476.97;;;16.45;60.08
55934;BME280;41839;41.386;2.082;2023-03-18T05:27:59;99475.25;;;16.45;60.27
55934;BME280;41839;41.386;2.082;2023-03-18T05:30:24;99470.88;;;16.44;60.24
55934;BME280;41839;41.386;2.082;2023-03-18T05:32:50;99470.84;;;16.40;60.10
55934;BME280;41839;41.386;2.082;2023-03-18T05:35:15;99476.94;;;16.42;59.45
55934;BME280;41839;41.386;2.082;2023-03-18T05:37:41;99470.78;;;16.36;59.45
55934;BME280;41839;41.386;2.082;2023-03-18T05:40:08;99457.66;;;16.27;59.40
55934;BME280;41839;41.386;2.082;2023-03-18T05:42:36;99494.16;;;16.36;59.20
55934;BME280;41839;41.386;2.082;2023-03-18T05:45:03;99501.94;;;16.38;58.64
55934;BME280;41839;41.386;2.082;2023-03-18T05:47:29;99497.56;;;16.34;58.15
55934;BME280;41839;41.386;2.082;2023-03-18T05:49:55;99495.78;;;16.31;58.36
55934;BME280;41839;41.386;2.082;2023-03-18T05:52:20;99507.94;;;16.32;58.53
55934;BME280;41839;41.386;2.082;2023-03-18T05:54:46;99507.13;;;16.38;58.43
55934;BME280;41839;41.386;2.082;2023-03-18T05:57:11;99514.09;;;16.41;58.50
55934;BME280;41839;41.386;2.082;2023-03-18T05:59:37;99508.91;;;16.41;58.13
55934;BME280;41839;41.386;2.082;2023-03-18T06:02:03;99515.81;;;16.39;58.31
55934;BME280;41839;41.386;2.082;2023-03-18T06:04:28;99494.09;;;16.35;57.95
55934;BME280;41839;41.386;2.082;2023-03-18T06:06:55;99501.94;;;16.38;57.20
55934;BME280;41839;41.386;2.082;2023-03-18T06:09:21;99482.53;;;16.14;56.98
55934;BME280;41839;41.386;2.082;2023-03-18T06:11:47;99489.44;;;16.14;57.03
55934;BME280;41839;41.386;2.082;2023-03-18T06:14:13;99512.97;;;16.25;57.53
55934;BME280;41839;41.386;2.082;2023-03-18T06:16:40;99499.13;;;16.26;57.40
55934;BME280;41839;41.386;2.082;2023-03-18T06:19:06;99501.03;;;16.34;56.58
55934;BME280;41839;41.386;2.082;2023-03-18T06:21:32;99512.31;;;16.36;56.84
55934;BME280;41839;41.386;2.082;2023-03-18T06:23:57;99512.41;;;16.43;56.67
55934;BME280;41839;41.386;2.082;2023-03-18T06:26:23;99518.56;;;16.48;56.65
55934;BME280;41839;41.386;2.082;2023-03-18T06:28:48;99519.53;;;16.54;56.30
55934;BME280;41839;41.386;2.082;2023-03-18T06:31:14;99527.28;;;16.53;56.48
55934;BME280;41839;41.386;2.082;2023-03-18T06:33:40;99526.31;;;16.45;56.64
55934;BME280;41839;41.386;2.082;2023-03-18T06:36:06;99524.53;;;16.44;56.04
55934;BME280;41839;41.386;2.082;2023-03-18T06:38:31;99500.16;;;16.34;55.83
55934;BME280;41839;41.386;2.082;2023-03-18T06:40:57;99531.66;;;16.54;55.28
55934;BME280;41839;41.386;2.082;2023-03-18T06:43:24;99533.03;;;16.35;54.80
55934;BME280;41839;41.386;2.082;2023-03-18T06:45:51;99524.31;;;16.30;54.74
55934;BME280;41839;41.386;2.082;2023-03-18T06:48:17;99534.84;;;16.39;54.74
55934;BME280;41839;41.386;2.082;2023-03-18T06:50:43;99535.72;;;16.41;54.70
55934;BME280;41839;41.386;2.082;2023-03-18T06:53:09;99539.19;;;16.40;54.66
55934;BME280;41839;41.386;2.082;2023-03-18T06:55:35;99530.50;;;16.38;54.39
55934;BME280;41839;41.386;2.082;2023-03-18T06:58:02;99540.16;;;16.47;54.69
55934;BME280;41839;41.386;2.082;2023-03-18T07:00:30;99538.56;;;16.55;54.85
55934;BME280;41839;41.386;2.082;2023-03-18T07:02:56;99538.47;;;16.49;54.55
55934;BME280;41839;41.386;2.082;2023-03-18T07:05:21;99543.63;;;16.46;54.81
55934;BME280;41839;41.386;2.082;2023-03-18T07:07:48;99548.91;;;16.53;55.12
55934;BME280;41839;41.386;2.082;2023-03-18T07:10:22;99553.19;;;16.48;54.83
55934;BME280;41839;41.386;2.082;2023-03-18T07:12:48;99541.03;;;16.47;54.72
55934;BME280;41839;41.386;2.082;2023-03-18T07:15:15;99545.50;;;16.54;54.75
55934;BME280;41839;41.386;2.082;2023-03-18T07:17:41;99552.44;;;16.55;54.15
55934;BME280;41839;41.386;2.082;2023-03-18T07:20:08;99564.69;;;16.64;53.97
55934;BME280;41839;41.386;2.082;2023-03-18T07:22:34;99568.16;;;16.65;53.92
55934;BME280;41839;41.386;2.082;2023-03-18T07:25:00;99563.00;;;16.68;53.97
55934;BME280;41839;41.386;2.082;2023-03-18T07:27:25;99572.53;;;16.69;53.89
55934;BME280;41839;41.386;2.082;2023-03-18T07:29:51;99575.22;;;16.75;54.00
55934;BME280;41839;41.386;2.082;2023-03-18T07:32:16;99567.56;;;16.79;54.64
55934;BME280;41839;41.386;2.082;2023-03-18T07:34:43;99564.84;;;16.73;54.55
55934;BME280;41839;41.386;2.082;2023-03-18T07:37:09;99571.94;;;16.83;54.10
55934;BME280;41839;41.386;2.082;2023-03-18T07:39:34;99581.53;;;16.86;54.29
55934;BME280;41839;41.386;2.082;2023-03-18T07:41:59;99576.41;;;16.94;53.90
55934;BME280;41839;41.386;2.082;2023-03-18T07:44:26;99585.22;;;17.02;54.06
55934;BME280;41839;41.386;2.082;2023-03-18T07:46:51;99583.63;;;17.12;53.31
55934;BME280;41839;41.386;2.082;2023-03-18T07:49:17;99587.25;;;17.23;53.20
55934;BME280;41839;41.386;2.082;2023-03-18T07:51:42;99586.50;;;17.30;52.86
55934;BME280;41839;41.386;2.082;2023-03-18T07:54:08;99570.75;;;17.19;52.42
55934;BME280;41839;41.386;2.082;2023-03-18T07:56:33;99590.03;;;17.37;52.48
55934;BME280;41839;41.386;2.082;2023-03-18T07:59:00;99596.16;;;17.40;52.28
55934;BME280;41839;41.386;2.082;2023-03-18T08:01:26;99596.31;;;17.51;52.12
55934;BME280;41839;41.386;2.082;2023-03-18T08:03:51;99600.69;;;17.55;52.01
55934;BME280;41839;41.386;2.082;2023-03-18T08:06:17;99605.13;;;17.64;52.19
55934;BME280;41839;41.386;2.082;2023-03-18T08:08:43;99588.69;;;17.66;51.66
55934;BME280;41839;41.386;2.082;2023-03-18T08:11:10;99606.38;;;17.90;51.84
55934;BME280;41839;41.386;2.082;2023-03-18T08:13:37;99600.53;;;18.13;51.67
55934;BME280;41839;41.386;2.082;2023-03-18T08:16:03;99603.41;;;18.39;50.73
55934;BME280;41839;41.386;2.082;2023-03-18T08:18:29;99596.72;;;18.69;50.36
55934;BME280;41839;41.386;2.082;2023-03-18T08:20:54;99609.25;;;19.12;49.68
55934;BME280;41839;41.386;2.082;2023-03-18T08:23:21;99616.34;;;19.38;49.23
55934;BME280;41839;41.386;2.082;2023-03-18T08:25:48;99606.06;;;19.58;49.24
55934;BME280;41839;41.386;2.082;2023-03-18T08:28:15;99621.56;;;19.35;50.18
55934;BME280;41839;41.386;2.082;2023-03-18T08:30:40;99621.38;;;19.06;49.66
55934;BME280;41839;41.386;2.082;2023-03-18T08:33:06;99616.03;;;18.92;49.31
55934;BME280;41839;41.386;2.082;2023-03-18T08:35:32;99608.03;;;18.69;49.42
55934;BME280;41839;41.386;2.082;2023-03-18T08:37:58;99579.97;;;18.37;49.89
55934;BME280;41839;41.386;2.082;2023-03-18T08:40:23;99591.19;;;18.30;49.91
55934;BME280;41839;41.386;2.082;2023-03-18T08:42:50;99588.84;;;18.61;49.01
55934;BME280;41839;41.386;2.082;2023-03-18T08:45:17;99601.91;;;18.65;48.83
55934;BME280;41839;41.386;2.082;2023-03-18T08:47:42;99603.50;;;18.47;49.54
55934;BME280;41839;41.386;2.082;2023-03-18T08:50:08;99564.81;;;17.96;50.42
55934;BME280;41839;41.386;2.082;2023-03-18T08:52:34;99588.63;;;17.62;52.05
55934;BME280;41839;41.386;2.082;2023-03-18T08:55:02;99555.59;;;16.91;52.48
55934;BME280;41839;41.386;2.082;2023-03-18T08:57:28;99628.16;;;17.35;52.91
55934;BME280;41839;41.386;2.082;2023-03-18T08:59:53;99629.16;;;17.46;52.40
55934;BME280;41839;41.386;2.082;2023-03-18T09:02:19;99627.22;;;17.29;52.44
55934;BME280;41839;41.386;2.082;2023-03-18T09:04:45;99622.09;;;17.37;52.59
55934;BME280;41839;41.386;2.082;2023-03-18T09:07:12;99618.03;;;17.55;52.28
55934;BME280;41839;41.386;2.082;2023-03-18T09:09:38;99624.22;;;17.63;52.42
55934;BME280;41839;41.386;2.082;2023-03-18T09:12:04;99623.56;;;17.78;52.27
55934;BME280;41839;41.386;2.082;2023-03-18T09:14:31;99622.91;;;17.94;51.37
55934;BME280;41839;41.386;2.082;2023-03-18T09:16:57;99608.72;;;17.73;52.01
55934;BME280;41839;41.386;2.082;2023-03-18T09:19:24;99598.94;;;17.56;51.72
55934;BME280;41839;41.386;2.082;2023-03-18T09:21:50;99616.38;;;17.61;51.90
55934;BME280;41839;41.386;2.082;2023-03-18T09:24:15;99637.44;;;17.78;52.56
55934;BME280;41839;41.386;2.082;2023-03-18T09:26:41;99619.16;;;17.77;52.58
55934;BME280;41839;41.386;2.082;2023-03-18T09:29:06;99642.91;;;18.00;56.93
55934;BME280;41839;41.386;2.082;2023-03-18T09:31:32;99641.13;;;18.78;56.64
55934;BME280;41839;41.386;2.082;2023-03-18T09:33:57;99637.22;;;19.35;54.98
55934;BME280;41839;41.386;2.082;2023-03-18T09:36:23;99629.59;;;19.69;54.03
55934;BME280;41839;41.386;2.082;2023-03-18T09:38:48;99638.44;;;20.01;52.65
